createdAt,value
2023-01-17T00:02:26.208Z,52.65
2023-01-17T00:05:12.620Z,56.84
2023-01-17T00:07:59.086Z,56.98
2023-01-17T00:10:30.310Z,57.28
2023-01-17T00:13:05.024Z,59.23
2023-01-17T00:15:33.241Z,60.08
2023-01-17T00:18:00.957Z,66.70
2023-01-17T00:20:50.592Z,73.81
2023-01-17T00:23:42.601Z,67.94
2023-01-17T00:26:20.132Z,63.65
2023-01-17T00:28:47.877Z,55.79
2023-01-17T00:31:17.911Z,51.53
2023-01-17T00:33:45.818Z,53.81
2023-01-17T00:36:14.064Z,55.92
2023-01-17T00:38:42.533Z,57.71
2023-01-17T00:41:15.378Z,59.79
2023-01-17T00:44:02.215Z,60.53
2023-01-17T00:46:56.795Z,61.42
2023-01-17T00:49:43.303Z,69.88
2023-01-17T00:52:30.084Z,73.01
2023-01-17T00:55:17.149Z,66.05
2023-01-17T00:58:03.519Z,60.35
2023-01-17T01:00:50.326Z,53.00
2023-01-17T01:03:37.174Z,52.88
2023-01-17T01:06:25.513Z,53.93
2023-01-17T01:09:12.232Z,56.75
2023-01-17T01:11:59.000Z,59.62
2023-01-17T01:14:46.244Z,69.05
2023-01-17T01:17:32.978Z,70.54
2023-01-17T01:20:19.722Z,64.45
2023-01-17T01:23:06.160Z,61.02
2023-01-17T01:25:55.647Z,57.97
2023-01-17T01:28:42.480Z,54.80
2023-01-17T01:31:29.346Z,55.63
2023-01-17T01:33:57.254Z,57.54
2023-01-17T01:36:25.155Z,59.21
2023-01-17T01:38:54.758Z,60.38
2023-01-17T01:41:23.323Z,67.90
2023-01-17T01:43:54.857Z,76.08
2023-01-17T01:46:32.731Z,71.62
2023-01-17T01:49:25.160Z,66.16
2023-01-17T01:51:59.977Z,64.70
2023-01-17T01:54:47.372Z,64.43
2023-01-17T01:57:22.900Z,61.81
2023-01-17T02:00:11.705Z,60.49
2023-01-17T02:02:39.785Z,56.98
2023-01-17T02:05:09.681Z,58.47
2023-01-17T02:07:45.825Z,63.28
2023-01-17T02:10:14.113Z,66.66
2023-01-17T02:12:44.109Z,62.72
2023-01-17T02:15:12.554Z,61.55
2023-01-17T02:18:17.489Z,61.96
2023-01-17T02:21:20.014Z,61.51
2023-01-17T02:24:28.461Z,57.38
2023-01-17T02:27:28.556Z,57.90
2023-01-17T02:30:30.131Z,61.70
2023-01-17T02:33:23.395Z,68.01
2023-01-17T02:36:05.831Z,66.08
2023-01-17T02:39:04.909Z,63.34
2023-01-17T02:41:42.342Z,62.00
2023-01-17T02:44:17.007Z,58.72
2023-01-17T02:46:56.420Z,57.86
2023-01-17T02:49:32.344Z,61.57
2023-01-17T02:52:29.019Z,66.10
2023-01-17T02:55:28.963Z,66.33
2023-01-17T02:58:14.365Z,63.10
2023-01-17T03:01:17.556Z,61.72
2023-01-17T03:04:28.540Z,56.91
2023-01-17T03:07:07.122Z,60.45
2023-01-17T03:09:37.294Z,65.19
2023-01-17T03:12:09.167Z,64.58
2023-01-17T03:14:37.429Z,63.63
2023-01-17T03:17:05.923Z,61.13
2023-01-17T03:19:33.790Z,60.04
2023-01-17T03:22:01.555Z,59.66
2023-01-17T03:24:29.343Z,59.01
2023-01-17T03:26:57.168Z,60.97
2023-01-17T03:29:25.188Z,65.67
2023-01-17T03:31:52.936Z,65.84
2023-01-17T03:34:20.698Z,63.11
2023-01-17T03:36:48.938Z,60.93
2023-01-17T03:39:16.741Z,60.42
2023-01-17T03:41:45.833Z,59.65
2023-01-17T03:44:13.636Z,60.87
2023-01-17T03:46:41.479Z,63.82
2023-01-17T03:49:10.665Z,64.88
2023-01-17T03:51:39.085Z,62.26
2023-01-17T03:54:07.088Z,60.72
2023-01-17T03:56:35.373Z,60.09
2023-01-17T03:59:03.560Z,58.48
2023-01-17T04:01:31.422Z,58.75
2023-01-17T04:03:59.256Z,63.82
2023-01-17T04:06:28.484Z,65.95
2023-01-17T04:08:58.218Z,64.02
2023-01-17T04:11:26.371Z,60.75
2023-01-17T04:13:55.344Z,58.01
2023-01-17T04:16:31.191Z,59.41
2023-01-17T04:18:59.051Z,61.00
2023-01-17T04:21:26.774Z,65.75
2023-01-17T04:23:55.073Z,68.44
2023-01-17T04:26:22.794Z,65.79
2023-01-17T04:28:50.944Z,61.77
2023-01-17T04:31:18.963Z,60.35
2023-01-17T04:33:47.544Z,58.20
2023-01-17T04:36:15.865Z,57.15
2023-01-17T04:38:44.183Z,58.88
2023-01-17T04:41:13.614Z,64.28
2023-01-17T04:43:42.100Z,65.62
2023-01-17T04:46:11.032Z,63.96
2023-01-17T04:48:40.320Z,62.00
2023-01-17T04:51:08.047Z,60.85
2023-01-17T04:53:36.334Z,59.67
2023-01-17T04:56:05.305Z,56.64
2023-01-17T04:58:33.751Z,60.28
2023-01-17T05:01:04.559Z,64.72
2023-01-17T05:03:34.272Z,66.01
2023-01-17T05:06:02.535Z,63.11
2023-01-17T05:08:31.485Z,60.55
2023-01-17T05:10:59.400Z,59.56
2023-01-17T05:13:27.092Z,55.81
2023-01-17T05:15:57.960Z,58.91
2023-01-17T05:18:25.842Z,62.50
2023-01-17T05:20:54.889Z,65.81
2023-01-17T05:23:23.199Z,64.68
2023-01-17T05:25:53.044Z,61.78
2023-01-17T05:28:20.819Z,61.05
2023-01-17T05:30:48.580Z,59.19
2023-01-17T05:33:16.323Z,58.65
2023-01-17T05:35:44.133Z,61.04
2023-01-17T05:38:11.926Z,65.08
2023-01-17T05:40:42.443Z,65.58
2023-01-17T05:43:10.377Z,63.31
2023-01-17T05:45:38.530Z,61.99
2023-01-17T05:48:06.797Z,60.72
2023-01-17T05:50:38.113Z,58.25
2023-01-17T05:53:10.318Z,56.30
2023-01-17T05:55:40.274Z,61.45
2023-01-17T05:58:16.131Z,66.22
2023-01-17T06:00:45.596Z,66.34
2023-01-17T06:03:16.106Z,63.33
2023-01-17T06:05:45.843Z,61.08
2023-01-17T06:08:14.919Z,60.09
2023-01-17T06:10:45.899Z,58.01
2023-01-17T06:13:16.755Z,58.44
2023-01-17T06:15:44.769Z,61.55
2023-01-17T06:18:16.828Z,68.55
2023-01-17T06:20:45.148Z,70.05
2023-01-17T06:23:15.151Z,65.68
2023-01-17T06:25:46.429Z,61.34
2023-01-17T06:28:20.563Z,61.47
2023-01-17T06:30:49.651Z,56.37
2023-01-17T06:33:18.484Z,56.72
2023-01-17T06:35:53.156Z,59.30
2023-01-17T06:38:21.935Z,63.43
2023-01-17T06:40:54.405Z,66.45
2023-01-17T06:43:22.374Z,64.36
2023-01-17T06:45:51.360Z,62.80
2023-01-17T06:48:19.232Z,60.45
2023-01-17T06:50:48.540Z,57.81
2023-01-17T06:53:16.324Z,57.94
2023-01-17T06:55:46.778Z,62.28
2023-01-17T06:58:14.682Z,66.88
2023-01-17T07:00:42.613Z,67.31
2023-01-17T07:03:20.720Z,63.26
2023-01-17T07:05:49.258Z,58.22
2023-01-17T07:08:20.558Z,59.57
2023-01-17T07:10:50.372Z,63.31
2023-01-17T07:13:18.279Z,66.46
2023-01-17T07:15:46.078Z,63.76
2023-01-17T07:18:14.788Z,61.72
2023-01-17T07:20:44.278Z,61.06
2023-01-17T07:23:13.253Z,59.30
2023-01-17T07:25:42.521Z,57.61
2023-01-17T07:28:10.284Z,61.96
2023-01-17T07:30:38.579Z,65.91
2023-01-17T07:33:06.579Z,65.31
2023-01-17T07:35:34.944Z,63.62
2023-01-17T07:38:03.632Z,61.41
2023-01-17T07:40:41.439Z,60.29
2023-01-17T07:43:17.316Z,59.47
2023-01-17T07:45:50.994Z,57.40
2023-01-17T07:48:22.736Z,58.42
2023-01-17T07:50:56.685Z,64.50
2023-01-17T07:53:28.051Z,66.60
2023-01-17T07:56:02.807Z,63.94
2023-01-17T07:58:33.074Z,61.87
2023-01-17T08:01:07.193Z,61.72
2023-01-17T08:03:39.963Z,60.74
2023-01-17T08:06:26.951Z,58.58
2023-01-17T08:08:59.112Z,58.81
2023-01-17T08:11:28.920Z,61.95
2023-01-17T08:14:00.204Z,65.98
2023-01-17T08:16:29.931Z,65.95
2023-01-17T08:18:58.172Z,63.28
2023-01-17T08:21:26.037Z,61.10
2023-01-17T08:23:54.890Z,60.01
2023-01-17T08:26:22.738Z,57.74
2023-01-17T08:29:00.677Z,57.59
2023-01-17T08:31:34.534Z,62.61
2023-01-17T08:34:02.549Z,66.37
2023-01-17T08:36:31.376Z,65.27
2023-01-17T08:39:00.247Z,64.24
2023-01-17T08:41:29.265Z,60.82
2023-01-17T08:44:00.128Z,57.93
2023-01-17T08:46:28.374Z,58.82
2023-01-17T08:48:59.068Z,62.48
2023-01-17T08:51:28.112Z,67.61
2023-01-17T08:53:56.964Z,64.91
2023-01-17T08:56:27.180Z,61.80
2023-01-17T08:58:54.944Z,60.31
2023-01-17T09:01:26.578Z,57.52
2023-01-17T09:03:54.893Z,60.92
2023-01-17T09:06:22.829Z,64.58
2023-01-17T09:08:54.147Z,65.41
2023-01-17T09:11:21.920Z,63.86
2023-01-17T09:13:50.048Z,62.45
2023-01-17T09:16:18.133Z,61.10
2023-01-17T09:18:47.060Z,60.28
2023-01-17T09:21:17.604Z,59.15
2023-01-17T09:23:46.711Z,58.57
2023-01-17T09:26:19.914Z,61.76
2023-01-17T09:28:49.126Z,66.18
2023-01-17T09:31:18.747Z,64.82
2023-01-17T09:33:48.980Z,64.03
2023-01-17T09:36:17.533Z,62.66
2023-01-17T09:38:45.798Z,61.12
2023-01-17T09:41:29.930Z,61.30
2023-01-17T09:44:07.420Z,58.40
2023-01-17T09:46:45.024Z,58.74
2023-01-17T09:49:43.157Z,60.35
2023-01-17T09:52:19.646Z,67.28
2023-01-17T09:54:50.035Z,67.59
2023-01-17T09:57:46.896Z,63.82
2023-01-17T10:01:22.892Z,61.45
2023-01-17T10:04:22.790Z,60.54
2023-01-17T10:07:34.210Z,56.72
2023-01-17T10:10:42.806Z,57.61
2023-01-17T10:13:47.562Z,62.30
2023-01-17T10:16:42.328Z,67.42
2023-01-17T10:19:47.819Z,65.78
2023-01-17T10:22:31.581Z,62.68
2023-01-17T10:25:16.419Z,60.61
2023-01-17T10:28:00.041Z,59.56
2023-01-17T10:30:43.716Z,54.99
2023-01-17T10:33:24.713Z,57.42
2023-01-17T10:36:00.073Z,59.28
2023-01-17T10:38:37.083Z,67.16
2023-01-17T10:41:15.716Z,66.38
2023-01-17T10:44:17.360Z,64.08
2023-01-17T10:46:55.496Z,62.39
2023-01-17T10:49:28.098Z,60.28
2023-01-17T10:52:39.070Z,53.18
2023-01-17T10:55:25.072Z,55.88
2023-01-17T10:57:54.425Z,60.97
2023-01-17T11:00:35.476Z,65.32
2023-01-17T11:03:04.269Z,64.56
2023-01-17T11:05:36.709Z,62.13
2023-01-17T11:08:14.442Z,61.53
2023-01-17T11:10:57.265Z,61.18
2023-01-17T11:13:30.799Z,54.83
2023-01-17T11:16:05.971Z,55.18
2023-01-17T11:18:38.341Z,56.63
2023-01-17T11:21:12.203Z,61.45
2023-01-17T11:23:46.767Z,65.90
2023-01-17T11:26:29.249Z,66.20
2023-01-17T11:29:31.315Z,64.08
2023-01-17T11:32:29.969Z,62.06
2023-01-17T11:35:20.301Z,60.36
2023-01-17T11:38:04.517Z,55.86
2023-01-17T11:40:40.805Z,55.75
2023-01-17T11:43:12.104Z,59.70
2023-01-17T11:45:41.185Z,60.04
2023-01-17T11:48:09.254Z,63.17
2023-01-17T11:51:03.537Z,69.42
2023-01-17T11:53:39.353Z,69.78
2023-01-17T11:56:34.227Z,66.17
2023-01-17T11:59:37.686Z,64.82
2023-01-17T12:02:36.187Z,61.40
2023-01-17T12:05:32.567Z,54.97
2023-01-17T12:08:14.774Z,55.84
2023-01-17T12:11:38.451Z,57.20
2023-01-17T12:14:40.934Z,57.49
2023-01-17T12:17:33.542Z,65.25
2023-01-17T12:20:07.099Z,69.91
2023-01-17T12:22:56.611Z,67.77
2023-01-17T12:25:54.657Z,65.39
2023-01-17T12:29:06.520Z,61.04
2023-01-17T12:32:08.654Z,54.38
2023-01-17T12:35:32.356Z,55.96
2023-01-17T12:38:14.060Z,61.02
2023-01-17T12:40:55.965Z,66.03
2023-01-17T12:43:37.429Z,68.71
2023-01-17T12:46:30.753Z,66.10
2023-01-17T12:49:14.185Z,63.29
2023-01-17T12:51:47.457Z,61.11
2023-01-17T12:54:31.674Z,59.87
2023-01-17T12:57:14.064Z,55.66
2023-01-17T13:00:02.715Z,55.10
2023-01-17T13:03:11.978Z,61.07
2023-01-17T13:05:46.471Z,65.56
2023-01-17T13:08:40.953Z,68.18
2023-01-17T13:11:21.233Z,65.24
2023-01-17T13:13:52.302Z,62.13
2023-01-17T13:16:58.719Z,60.30
2023-01-17T13:20:39.592Z,54.83
2023-01-17T13:23:29.611Z,53.47
2023-01-17T13:26:00.639Z,55.59
2023-01-17T13:28:56.465Z,64.66
2023-01-17T13:31:39.573Z,68.04
2023-01-17T13:34:39.012Z,67.14
2023-01-17T13:38:10.681Z,63.71
2023-01-17T13:41:11.148Z,60.46
2023-01-17T13:44:09.540Z,54.26
2023-01-17T13:47:01.180Z,58.66
2023-01-17T13:49:40.741Z,61.08
2023-01-17T13:52:20.477Z,65.99
2023-01-17T13:54:54.414Z,67.09
2023-01-17T13:57:30.248Z,63.97
2023-01-17T14:00:35.879Z,62.09
2023-01-17T14:03:05.100Z,57.68
2023-01-17T14:05:38.975Z,54.47
2023-01-17T14:08:17.911Z,57.46
2023-01-17T14:10:54.802Z,59.77
2023-01-17T14:13:36.589Z,60.77
2023-01-17T14:16:24.703Z,69.48
2023-01-17T14:18:55.155Z,70.59
2023-01-17T14:21:27.651Z,67.76
2023-01-17T14:24:15.472Z,63.69
2023-01-17T14:27:01.727Z,61.49
2023-01-17T14:30:00.729Z,60.97
2023-01-17T14:32:35.466Z,60.23
2023-01-17T14:35:05.854Z,55.82
2023-01-17T14:37:42.166Z,54.63
2023-01-17T14:40:30.711Z,57.09
2023-01-17T14:43:12.096Z,60.29
2023-01-17T14:45:43.027Z,66.61
2023-01-17T14:48:23.152Z,68.14
2023-01-17T14:50:55.083Z,66.19
2023-01-17T14:53:29.760Z,62.68
2023-01-17T14:56:14.918Z,60.73
2023-01-17T14:58:43.008Z,57.22
2023-01-17T15:01:13.430Z,56.21
2023-01-17T15:03:49.608Z,61.01
2023-01-17T15:06:24.156Z,65.68
2023-01-17T15:08:54.967Z,64.90
2023-01-17T15:11:30.179Z,62.85
2023-01-17T15:14:05.796Z,61.11
2023-01-17T15:16:38.385Z,60.01
2023-01-17T15:19:15.438Z,57.92
2023-01-17T15:21:46.860Z,56.49
2023-01-17T15:24:26.355Z,58.26
2023-01-17T15:26:55.307Z,66.25
2023-01-17T15:29:30.965Z,66.86
2023-01-17T15:32:02.327Z,65.21
2023-01-17T15:34:43.356Z,62.20
2023-01-17T15:37:41.552Z,62.04
2023-01-17T15:40:24.399Z,60.28
2023-01-17T15:43:02.400Z,59.92
2023-01-17T15:45:33.220Z,57.16
2023-01-17T15:48:40.607Z,58.22
2023-01-17T15:51:12.594Z,63.15
2023-01-17T15:53:43.268Z,66.46
2023-01-17T15:56:32.680Z,63.47
2023-01-17T15:59:45.815Z,61.15
2023-01-17T16:02:43.371Z,58.19
2023-01-17T16:05:24.260Z,57.79
2023-01-17T16:07:56.291Z,61.88
2023-01-17T16:10:31.771Z,67.09
2023-01-17T16:12:59.900Z,65.99
2023-01-17T16:15:29.470Z,64.06
2023-01-17T16:18:24.420Z,61.89
2023-01-17T16:21:15.616Z,61.70
2023-01-17T16:23:43.508Z,60.24
2023-01-17T16:26:11.526Z,58.26
2023-01-17T16:28:39.726Z,58.53
2023-01-17T16:31:08.767Z,63.32
2023-01-17T16:33:39.456Z,66.14
2023-01-17T16:36:15.710Z,63.79
2023-01-17T16:38:51.219Z,61.45
2023-01-17T16:41:20.915Z,58.88
2023-01-17T16:43:59.307Z,57.80
2023-01-17T16:46:29.682Z,60.72
2023-01-17T16:49:00.480Z,65.34
2023-01-17T16:51:28.636Z,65.15
2023-01-17T16:53:58.878Z,62.65
2023-01-17T16:56:27.167Z,60.38
2023-01-17T16:58:55.455Z,58.25
2023-01-17T17:01:25.739Z,60.17
2023-01-17T17:03:54.691Z,64.58
2023-01-17T17:06:22.719Z,64.09
2023-01-17T17:08:51.979Z,62.42
2023-01-17T17:11:24.408Z,60.53
2023-01-17T17:13:53.030Z,59.66
2023-01-17T17:16:26.575Z,56.80
2023-01-17T17:19:02.620Z,61.06
2023-01-17T17:21:35.499Z,64.83
2023-01-17T17:24:05.677Z,64.59
2023-01-17T17:26:38.044Z,61.87
2023-01-17T17:29:10.531Z,59.58
2023-01-17T17:31:41.142Z,56.63
2023-01-17T17:34:12.561Z,60.77
2023-01-17T17:36:41.914Z,65.02
2023-01-17T17:39:17.379Z,64.27
2023-01-17T17:41:45.900Z,61.50
2023-01-17T17:44:13.874Z,59.01
2023-01-17T17:46:43.272Z,56.78
2023-01-17T17:49:12.802Z,61.60
2023-01-17T17:51:41.010Z,65.77
2023-01-17T17:54:12.145Z,64.59
2023-01-17T17:56:42.354Z,61.33
2023-01-17T17:59:17.034Z,60.50
2023-01-17T18:01:48.552Z,59.87
2023-01-17T18:04:18.704Z,58.97
2023-01-17T18:06:46.796Z,61.25
2023-01-17T18:09:15.846Z,64.48
2023-01-17T18:11:44.918Z,63.49
2023-01-17T18:14:15.150Z,61.96
2023-01-17T18:16:45.023Z,61.87
2023-01-17T18:19:17.966Z,60.49
2023-01-17T18:21:46.634Z,59.31
2023-01-17T18:24:22.634Z,59.85
2023-01-17T18:26:59.566Z,63.94
2023-01-17T18:29:29.152Z,64.09
2023-01-17T18:31:59.009Z,62.63
2023-01-17T18:34:31.527Z,62.16
2023-01-17T18:36:59.387Z,61.47
2023-01-17T18:39:30.047Z,61.47
2023-01-17T18:42:00.175Z,60.11
2023-01-17T18:44:30.698Z,58.37
2023-01-17T18:47:04.252Z,58.12
2023-01-17T18:49:35.070Z,62.54
2023-01-17T18:52:05.024Z,65.99
2023-01-17T18:54:44.692Z,64.01
2023-01-17T18:57:14.457Z,61.85
2023-01-17T18:59:44.351Z,60.70
2023-01-17T19:02:12.459Z,59.32
2023-01-17T19:04:40.761Z,58.18
2023-01-17T19:07:10.107Z,60.95
2023-01-17T19:09:41.040Z,64.61
2023-01-17T19:12:11.465Z,63.51
2023-01-17T19:14:39.710Z,61.18
2023-01-17T19:17:08.169Z,59.53
2023-01-17T19:19:36.429Z,56.87
2023-01-17T19:22:08.707Z,57.59
2023-01-17T19:24:38.384Z,62.59
2023-01-17T19:27:08.016Z,67.06
2023-01-17T19:29:35.779Z,62.87
2023-01-17T19:32:04.784Z,61.20
2023-01-17T19:34:32.794Z,59.27
2023-01-17T19:37:01.026Z,56.93
2023-01-17T19:39:33.595Z,62.34
2023-01-17T19:42:02.595Z,64.00
2023-01-17T19:44:30.270Z,62.49
2023-01-17T19:46:58.034Z,60.86
2023-01-17T19:49:27.020Z,60.19
2023-01-17T19:51:57.361Z,55.85
2023-01-17T19:54:26.125Z,58.42
2023-01-17T19:56:56.853Z,60.94
2023-01-17T19:59:26.599Z,64.34
2023-01-17T20:01:55.663Z,65.83
2023-01-17T20:04:24.526Z,63.21
2023-01-17T20:06:54.033Z,61.70
2023-01-17T20:09:25.142Z,59.01
2023-01-17T20:11:53.506Z,58.62
2023-01-17T20:14:21.896Z,61.16
2023-01-17T20:16:51.481Z,65.39
2023-01-17T20:19:21.179Z,65.59
2023-01-17T20:21:49.704Z,62.50
2023-01-17T20:24:17.793Z,60.56
2023-01-17T20:26:48.414Z,57.38
2023-01-17T20:29:18.947Z,59.90
2023-01-17T20:31:54.712Z,61.05
2023-01-17T20:34:26.355Z,65.32
2023-01-17T20:36:57.684Z,66.71
2023-01-17T20:39:25.487Z,64.42
2023-01-17T20:41:56.155Z,61.43
2023-01-17T20:44:25.464Z,60.15
2023-01-17T20:46:53.355Z,56.85
2023-01-17T20:49:22.087Z,56.19
2023-01-17T20:51:49.967Z,57.18
2023-01-17T20:54:20.592Z,59.43
2023-01-17T20:56:49.285Z,61.31
2023-01-17T20:59:21.612Z,66.95
2023-01-17T21:01:51.041Z,70.58
2023-01-17T21:04:25.657Z,66.10
2023-01-17T21:06:56.447Z,62.91
2023-01-17T21:09:24.696Z,58.13
2023-01-17T21:11:54.408Z,56.41
2023-01-17T21:14:22.620Z,56.63
2023-01-17T21:16:52.868Z,62.60
2023-01-17T21:19:25.136Z,65.73
2023-01-17T21:21:53.759Z,62.90
2023-01-17T21:24:23.711Z,60.42
2023-01-17T21:26:53.940Z,58.59
2023-01-17T21:29:29.298Z,55.86
2023-01-17T21:31:57.360Z,60.38
2023-01-17T21:34:25.708Z,61.61
2023-01-17T21:36:54.351Z,66.44
2023-01-17T21:39:23.436Z,67.50
2023-01-17T21:41:51.267Z,63.75
2023-01-17T21:44:23.641Z,60.18
2023-01-17T21:46:55.145Z,58.92
2023-01-17T21:49:23.814Z,63.87
2023-01-17T21:51:54.605Z,63.76
2023-01-17T21:54:44.609Z,60.67
2023-01-17T21:57:34.972Z,58.49
2023-01-17T22:00:07.259Z,59.56
2023-01-17T22:02:34.997Z,64.05
2023-01-17T22:05:03.097Z,64.37
2023-01-17T22:07:31.007Z,61.99
2023-01-17T22:09:58.814Z,60.17
2023-01-17T22:12:26.538Z,57.53
2023-01-17T22:14:54.554Z,58.88
2023-01-17T22:17:22.546Z,63.75
2023-01-17T22:19:51.156Z,64.59
2023-01-17T22:22:19.174Z,62.04
2023-01-17T22:24:48.751Z,57.76
2023-01-17T22:27:21.323Z,58.29
2023-01-17T22:29:49.038Z,61.57
2023-01-17T22:32:17.205Z,64.98
2023-01-17T22:34:45.404Z,63.58
2023-01-17T22:37:13.408Z,61.80
2023-01-17T22:39:41.157Z,59.22
2023-01-17T22:42:08.907Z,54.70
2023-01-17T22:44:36.609Z,57.72
2023-01-17T22:47:06.831Z,60.01
2023-01-17T22:49:34.603Z,61.53
2023-01-17T22:52:02.441Z,66.92
2023-01-17T22:54:30.264Z,63.69
2023-01-17T22:57:00.349Z,59.96
2023-01-17T22:59:28.210Z,55.98
2023-01-17T23:01:55.891Z,56.63
2023-01-17T23:04:24.735Z,62.22
2023-01-17T23:06:56.727Z,66.49
2023-01-17T23:09:25.796Z,61.35
2023-01-17T23:11:55.267Z,56.70
2023-01-17T23:14:56.026Z,56.75
2023-01-17T23:17:45.382Z,60.26
2023-01-17T23:20:13.198Z,64.55
2023-01-17T23:22:41.045Z,66.36
2023-01-17T23:25:13.590Z,64.97
2023-01-17T23:28:04.159Z,60.56
2023-01-17T23:30:41.485Z,55.46
2023-01-17T23:33:17.907Z,56.00
2023-01-17T23:35:47.574Z,57.46
2023-01-17T23:38:29.864Z,63.45
2023-01-17T23:41:27.755Z,67.41
2023-01-17T23:43:59.389Z,61.89
2023-01-17T23:46:30.197Z,54.89
2023-01-17T23:48:58.841Z,54.83
2023-01-17T23:51:27.159Z,55.69
2023-01-17T23:54:05.537Z,57.87
2023-01-17T23:56:33.380Z,58.01
2023-01-17T23:59:02.797Z,58.58
